createdAt,value
2022-12-25T00:01:49.694Z,37.96
2022-12-25T00:21:49.974Z,37.94
2022-12-25T01:01:50.109Z,37.89
2022-12-25T01:21:49.920Z,37.86
2022-12-25T01:41:49.896Z,37.67
2022-12-25T02:01:50.039Z,37.65
2022-12-25T02:21:49.853Z,37.73
2022-12-25T02:41:49.870Z,37.69
2022-12-25T03:01:49.938Z,37.68
2022-12-25T03:21:49.808Z,37.65
2022-12-25T03:41:49.836Z,37.67
2022-12-25T04:01:49.866Z,37.65
2022-12-25T04:21:49.785Z,37.64
2022-12-25T04:41:49.747Z,37.63
2022-12-25T06:21:49.701Z,37.39
2022-12-25T07:21:49.630Z,37.4
2022-12-25T07:41:49.604Z,37.37
2022-12-25T08:01:49.761Z,37.36
2022-12-25T08:21:49.659Z,37.35
2022-12-25T09:01:49.740Z,37.34
2022-12-25T09:21:50.431Z,37.33
2022-12-25T09:41:49.299Z,37.33
2022-12-25T10:01:49.591Z,37.31
2022-12-25T10:21:49.572Z,37.3
2022-12-25T10:41:56.207Z,37.33
2022-12-25T11:02:03.589Z,37.36
2022-12-25T11:21:49.449Z,37.4
2022-12-25T12:01:56.519Z,37.43
2022-12-25T12:41:49.325Z,37.46
2022-12-25T13:01:49.554Z,37.47
2022-12-25T13:21:49.303Z,37.52
2022-12-25T13:41:49.261Z,37.6
2022-12-25T14:01:49.479Z,37.64
2022-12-25T14:21:56.265Z,37.69
2022-12-25T14:41:49.255Z,37.73
2022-12-25T15:21:49.181Z,37.89
2022-12-25T16:21:49.141Z,37.99
2022-12-25T18:01:56.159Z,38.17
2022-12-25T18:21:49.015Z,38.18
2022-12-25T18:41:49.034Z,38.18
2022-12-25T19:01:56.057Z,38.17
2022-12-25T19:21:48.983Z,38.2
2022-12-25T20:01:49.061Z,38.46
2022-12-25T20:42:02.906Z,38.86
2022-12-25T21:01:48.930Z,39.09
2022-12-25T21:21:48.832Z,39.3
2022-12-25T21:41:56.200Z,39.41
2022-12-25T22:01:48.932Z,39.52
2022-12-25T22:22:02.736Z,39.48
2022-12-25T22:41:48.965Z,39.78
2022-12-25T23:01:48.813Z,40.18
2022-12-25T23:21:48.726Z,40.49
